Flight Track Log - Related Links

Times and Time Zones

All times are in EST time to prevent confusion due to time zone crossing. See the UCA3598 flight status page for this flight to view local times or setup timezone preferences in your user account.

Time Position Orientation Groundspeed Altitude Reporting Facility
EST Latitude Longitude Course Direction KTS MPH feet Rate Location/Type
Sun 10:27:38 PM 38.9500 -77.5000 339° North 114 131 1,600  Level Potomac TRACON
Sun 10:28:38 PM 38.9833 -77.5167 339° North 152 175 3,000 1,500 Climbing Potomac TRACON
Sun 10:29:38 PM 39.0167 -77.5333 339° North 155 178 4,600 1,600 Climbing Potomac TRACON
Sun 10:30:38 PM 39.0667 -77.5500 345° North 160 184 6,200 1,700 Climbing Potomac TRACON
Sun 10:31:38 PM 39.1167 -77.5500 360° North 155 178 8,000 1,650 Climbing Potomac TRACON
Sun 10:32:38 PM 39.1500 -77.5667 339° North 152 175 9,500 1,295 Climbing Potomac TRACON
Sun 10:34:34 PM 39.2197 -77.6064 336° Northwest 157 181 11,800 1,153 Climbing Washington Center
Sun 10:35:35 PM 39.2611 -77.6233 342° North 157 181 12,900 645 Climbing Washington Center
Sun 10:36:35 PM 39.3089 -77.6356 349° North 157 181 13,100  Climbing Washington Center
Sun 10:37:35 PM 39.3678 -77.5969 27° Northeast 186 214 12,900 -102 Descending Washington Center
Sun 10:38:33 PM 39.4286 -77.5664 21° North 211 243 12,900 966 Level Washington Center
Sun 10:39:33 PM 39.4856 -77.5356 23° Northeast 218 251 14,800 1,091 Climbing Washington Center
Sun 10:40:34 PM 39.5381 -77.5100 21° North 212 244 15,100 492 Climbing Washington Center
Sun 10:41:35 PM 39.5947 -77.4794 23° Northeast 212 244 15,800 820 Climbing Washington Center
Sun 10:42:53 PM 39.6656 -77.4542 15° North 181 208 17,000 522 Climbing New York Center
Sun 10:43:53 PM 39.7178 -77.4539 360° North 192 221 17,000  Level New York Center
Sun 10:44:53 PM 39.7844 -77.4522 North 207 238 17,000  Level New York Center
Sun 10:45:53 PM 39.8408 -77.4519 360° North 220 253 17,000  Level New York Center
Sun 10:46:52 PM 39.9061 -77.4419 North 215 247 17,000  Level New York Center
Sun 10:47:53 PM 39.9622 -77.4094 24° Northeast 233 268 17,000  Level New York Center
Sun 10:48:53 PM 40.0289 -77.3725 23° Northeast 240 276 17,000  Level New York Center
Sun 10:49:53 PM 40.0828 -77.3422 23° Northeast 235 270 17,000  Level New York Center
Sun 10:50:52 PM 40.1494 -77.3050 23° Northeast 235 270 17,000  Level New York Center
Sun 10:51:53 PM 40.2031 -77.2775 21° North 230 265 17,000  Level New York Center
Sun 10:52:53 PM 40.2656 -77.2397 25° Northeast 230 265 17,000  Level New York Center
Sun 10:53:52 PM 40.3194 -77.2094 23° Northeast 225 259 17,000  Level New York Center
Sun 10:54:53 PM 40.3858 -77.1747 22° Northeast 225 259 17,000  Level New York Center
Sun 10:55:53 PM 40.4375 -77.1442 24° Northeast 225 259 17,000  Level New York Center
Sun 10:56:53 PM 40.5019 -77.1089 23° Northeast 220 253 17,000  Level New York Center
Sun 10:57:53 PM 40.5600 -77.0761 23° Northeast 220 253 17,000  Level New York Center
Sun 10:58:53 PM 40.6203 -77.0406 24° Northeast 220 253 17,000  Level New York Center
Sun 10:59:53 PM 40.6675 -77.0147 23° Northeast 220 253 17,000 -450 Level New York Center
Sun 11:00:53 PM 40.7386 -76.9719 25° Northeast 226 260 16,100 -756 Descending New York Center
Sun 11:01:52 PM 40.8008 -76.9364 23° Northeast 226 260 15,500 -700 Descending New York Center
Sun 11:02:53 PM 40.8608 -76.9036 22° Northeast 232 267 14,700 -700 Descending New York Center
Sun 11:03:52 PM 40.9211 -76.8678 24° Northeast 232 267 14,100 -600 Descending New York Center
Sun 11:04:53 PM 40.9747 -76.8367 24° Northeast 237 273 13,500 -450 Descending New York Center
Sun 11:05:52 PM 41.0347 -76.8036 23° Northeast 237 273 13,200 -150 Descending New York Center
Sun 11:06:53 PM 41.0928 -76.7675 25° Northeast 232 267 13,200  Level New York Center
Sun 11:07:53 PM 41.1464 -76.7364 24° Northeast 221 254 13,200  Level New York Center
Sun 11:08:52 PM 41.2022 -76.7056 23° Northeast 221 254 13,200  Level New York Center
Sun 11:09:53 PM 41.2583 -76.6689 26° Northeast 221 254 13,200  Level New York Center
Sun 11:10:53 PM 41.3183 -76.6356 23° Northeast 221 254 13,200  Level New York Center
Sun 11:11:52 PM 41.3742 -76.6017 24° Northeast 221 254 13,200  Level New York Center
Sun 11:12:53 PM 41.4300 -76.5678 24° Northeast 221 254 13,200  Level New York Center
Sun 11:13:53 PM 41.4814 -76.5389 23° Northeast 221 254 13,200  Level New York Center
Sun 11:14:53 PM 41.5456 -76.5031 23° Northeast 221 254 13,200 -150 Level New York Center
Sun 11:15:53 PM 41.6014 -76.4689 25° Northeast 221 254 12,900 -550 Descending New York Center
Sun 11:16:53 PM 41.6614 -76.4322 25° Northeast 221 254 12,100 -1,008 Descending New York Center
Sun 11:17:52 PM 41.7192 -76.4011 22° Northeast 231 266 10,900 -1,361 Descending New York Center
Sun 11:18:52 PM 41.7792 -76.3617 26° Northeast 236 272 9,400 -1,488 Descending New York Center
Sun 11:19:53 PM 41.8433 -76.3253 23° Northeast 236 272 7,900 -1,350 Descending New York Center
Sun 11:20:52 PM 41.8881 -76.2622 46° Northeast 226 260 6,700 -1,150 Descending New York Center
Sun 11:21:53 PM 41.9086 -76.1747 72° East 226 260 5,600 -1,091 Descending New York Center
Sun 11:22:53 PM 41.9228 -76.0922 77° East 243 280 4,500 -807 Descending New York Center
Sun 11:23:52 PM 41.9394 -75.9989 76° East 248 285 4,000 -250 Descending New York Center
Sun 11:24:53 PM 41.9561 -75.9025 77° East 248 285 4,000 -50 Level New York Center
Sun 11:25:53 PM 41.9822 -75.8264 65° Northeast 235 270 3,900 -50 Descending New York Center
Sun 11:26:52 PM 42.0342 -75.8331 355° North 163 188 3,900  Level New York Center
Sun 11:27:52 PM 42.0761 -75.8697 327° Northwest 156 180 3,900 -50 Level New York Center
Sun 11:28:52 PM 42.1122 -75.9033 325° Northwest 163 188 3,800 -347 Descending New York Center
Sun 11:29:53 PM 42.1406 -75.9225 333° Northwest 141 162 3,200 -590 Descending New York Center
Sun 11:31:00 PM 42.1982 -75.9710 309° West  Level Estimated

Login

Don't have an account? Register now (free) for customized features, flight alerts, and more!